createdAt,value
2022-11-24T00:01:16.506Z,3.90
2022-11-24T00:03:44.770Z,3.70
2022-11-24T00:06:15.394Z,3.60
2022-11-24T00:08:45.011Z,2.80
2022-11-24T00:11:18.703Z,3.60
2022-11-24T00:13:46.365Z,4.40
2022-11-24T00:16:20.129Z,3.90
2022-11-24T00:18:49.483Z,2.90
2022-11-24T00:21:17.545Z,3.70
2022-11-24T00:23:47.966Z,4.20
2022-11-24T00:26:17.678Z,5.30
2022-11-24T00:28:45.953Z,4.60
2022-11-24T00:31:27.701Z,3.80
2022-11-24T00:33:57.152Z,3.00
2022-11-24T00:36:26.566Z,4.00
2022-11-24T00:38:55.448Z,3.70
2022-11-24T00:41:24.129Z,3.50
2022-11-24T00:43:52.198Z,3.00
2022-11-24T00:46:20.577Z,4.30
2022-11-24T00:48:48.164Z,4.10
2022-11-24T00:51:16.520Z,3.50
2022-11-24T00:53:44.801Z,5.10
2022-11-24T00:56:12.865Z,4.80
2022-11-24T00:58:40.216Z,5.20
2022-11-24T01:01:10.767Z,4.30
2022-11-24T01:03:38.721Z,3.00
2022-11-24T01:06:07.705Z,3.60
2022-11-24T01:08:37.521Z,4.30
2022-11-24T01:11:18.494Z,3.80
2022-11-24T01:13:48.098Z,4.50
2022-11-24T01:16:20.833Z,4.00
2022-11-24T01:18:48.641Z,3.50
2022-11-24T01:21:18.554Z,4.00
2022-11-24T01:23:46.532Z,3.80
2022-11-24T01:26:16.750Z,4.70
2022-11-24T01:28:47.457Z,4.60
2022-11-24T01:31:16.859Z,4.10
2022-11-24T01:33:44.338Z,3.20
2022-11-24T01:36:12.001Z,3.10
2022-11-24T01:38:41.817Z,3.10
2022-11-24T01:41:17.242Z,5.70
2022-11-24T01:43:45.531Z,5.60
2022-11-24T01:46:15.491Z,4.10
2022-11-24T01:48:46.792Z,4.30
2022-11-24T01:51:17.628Z,3.60
2022-11-24T01:53:49.079Z,4.40
2022-11-24T01:56:16.639Z,3.50
2022-11-24T01:58:44.095Z,2.20
2022-11-24T02:01:13.785Z,2.90
2022-11-24T02:03:43.074Z,3.30
2022-11-24T02:06:22.956Z,2.30
2022-11-24T02:09:02.492Z,2.60
2022-11-24T02:11:34.974Z,2.30
2022-11-24T02:14:03.781Z,2.10
2022-11-24T02:16:33.565Z,2.10
2022-11-24T02:19:06.551Z,1.90
2022-11-24T02:21:34.008Z,2.80
2022-11-24T02:24:56.349Z,2.20
2022-11-24T02:27:23.706Z,2.60
2022-11-24T02:29:51.368Z,2.70
2022-11-24T02:32:19.128Z,2.80
2022-11-24T02:34:46.587Z,2.80
2022-11-24T02:37:15.375Z,2.80
2022-11-24T02:39:42.932Z,2.40
2022-11-24T02:42:11.721Z,2.60
2022-11-24T02:44:41.952Z,2.80
2022-11-24T02:47:10.321Z,2.10
2022-11-24T02:49:39.315Z,2.90
2022-11-24T02:52:21.110Z,2.10
2022-11-24T02:54:48.873Z,3.00
2022-11-24T02:57:19.807Z,2.50
2022-11-24T02:59:47.267Z,2.40
2022-11-24T03:02:15.189Z,2.70
2022-11-24T03:04:44.452Z,2.30
2022-11-24T03:07:12.412Z,2.30
2022-11-24T03:09:40.061Z,2.50
2022-11-24T03:12:07.741Z,3.90
2022-11-24T03:14:35.720Z,2.40
2022-11-24T03:17:03.973Z,2.80
2022-11-24T03:19:32.967Z,4.20
2022-11-24T03:22:00.522Z,3.80
2022-11-24T03:24:28.080Z,2.90
2022-11-24T03:26:55.841Z,5.20
2022-11-24T03:29:23.299Z,4.40
2022-11-24T03:31:51.372Z,3.00
2022-11-24T03:34:19.031Z,3.50
2022-11-24T03:36:46.592Z,4.10
2022-11-24T03:39:18.042Z,3.50
2022-11-24T03:41:46.117Z,2.40
2022-11-24T03:44:13.570Z,2.00
2022-11-24T03:46:41.374Z,2.50
2022-11-24T03:49:09.717Z,3.50
2022-11-24T03:51:37.691Z,1.90
2022-11-24T03:54:06.674Z,2.20
2022-11-24T03:56:34.027Z,2.50
2022-11-24T03:59:02.000Z,2.00
2022-11-24T04:01:32.270Z,1.80
2022-11-24T04:03:59.981Z,1.90
2022-11-24T04:06:27.555Z,1.80
2022-11-24T04:08:55.099Z,2.00
2022-11-24T04:11:41.506Z,1.30
2022-11-24T04:14:13.373Z,2.40
2022-11-24T04:16:41.853Z,1.90
2022-11-24T04:19:09.504Z,1.90
2022-11-24T04:21:37.371Z,2.20
2022-11-24T04:24:05.647Z,2.30
2022-11-24T04:26:33.919Z,2.30
2022-11-24T04:29:01.274Z,2.40
2022-11-24T04:31:29.382Z,2.60
2022-11-24T04:33:57.007Z,1.80
2022-11-24T04:36:24.467Z,1.30
2022-11-24T04:39:26.035Z,2.40
2022-11-24T04:41:42.416Z,2.50
2022-11-24T04:44:10.077Z,3.00
2022-11-24T04:46:37.718Z,2.50
2022-11-24T04:49:05.503Z,2.60
2022-11-24T04:51:33.167Z,1.10
2022-11-24T04:54:00.428Z,2.30
2022-11-24T04:56:27.977Z,2.40
2022-11-24T04:58:55.737Z,3.40
2022-11-24T05:01:23.344Z,3.30
2022-11-24T05:03:54.471Z,2.70
2022-11-24T05:06:22.414Z,2.90
2022-11-24T05:08:50.682Z,3.20
2022-11-24T05:11:19.474Z,1.70
2022-11-24T05:13:47.449Z,2.20
2022-11-24T05:16:15.576Z,2.70
2022-11-24T05:18:43.166Z,3.60
2022-11-24T05:21:10.626Z,4.70
2022-11-24T05:23:39.934Z,5.60
2022-11-24T05:26:07.585Z,4.40
2022-11-24T05:28:35.043Z,3.30
2022-11-24T05:31:03.939Z,3.10
2022-11-24T05:33:33.043Z,2.30
2022-11-24T05:36:01.407Z,2.60
2022-11-24T05:38:29.990Z,2.80
2022-11-24T05:41:02.064Z,2.50
2022-11-24T10:11:27.626Z,5.00
2022-11-24T10:14:13.690Z,5.90
2022-11-24T10:20:30.864Z,6.50
2022-11-24T10:23:12.125Z,6.60
2022-11-24T10:25:59.751Z,8.70
2022-11-24T10:28:43.789Z,3.50
2022-11-24T10:31:34.418Z,7.60
2022-11-24T10:34:17.102Z,10.20
2022-11-24T10:36:56.848Z,11.50
2022-11-24T10:39:39.464Z,17.10
2022-11-24T10:42:25.860Z,12.10
2022-11-24T10:45:18.201Z,8.70
2022-11-24T10:47:46.684Z,5.20
2022-11-24T10:50:44.244Z,10.40
2022-11-24T10:57:50.284Z,9.70
2022-11-24T11:00:20.404Z,10.90
2022-11-24T11:02:48.757Z,10.50
2022-11-24T11:05:33.341Z,9.20
2022-11-24T11:08:14.621Z,8.60
2022-11-24T11:10:44.915Z,4.50
2022-11-24T11:13:30.217Z,7.50
2022-11-24T11:15:58.559Z,6.50
2022-11-24T11:18:33.224Z,7.90
2022-11-24T11:21:04.564Z,7.40
2022-11-24T11:23:34.750Z,7.10
2022-11-24T11:26:25.207Z,7.80
2022-11-24T11:35:04.562Z,11.10
2022-11-24T11:37:31.912Z,9.00
2022-11-24T11:39:59.379Z,8.00
2022-11-24T11:45:39.394Z,12.00
2022-11-24T11:48:14.999Z,9.30
2022-11-24T11:51:21.041Z,9.10
2022-11-24T11:53:46.252Z,4.60
2022-11-24T11:56:25.999Z,12.90
2022-11-24T11:59:14.037Z,19.20
2022-11-24T12:01:45.693Z,17.40
2022-11-24T12:04:20.784Z,17.80
2022-11-24T12:07:01.086Z,14.10
2022-11-24T12:09:44.313Z,9.50
2022-11-24T12:12:30.924Z,9.10
2022-11-24T12:14:58.791Z,9.50
2022-11-24T12:17:29.338Z,6.00
2022-11-24T12:23:46.144Z,7.70
2022-11-24T12:26:32.349Z,6.50
2022-11-24T12:29:39.118Z,9.40
2022-11-24T12:32:30.128Z,8.90
2022-11-24T12:35:30.354Z,5.10
2022-11-24T12:38:29.046Z,6.90
2022-11-24T12:41:40.532Z,9.80
2022-11-24T12:44:05.120Z,10.00
2022-11-24T12:46:43.112Z,11.30
2022-11-24T12:49:49.808Z,8.00
2022-11-24T12:52:29.752Z,10.30
2022-11-24T12:54:57.547Z,23.80
2022-11-24T12:57:41.923Z,57.90
2022-11-24T13:00:22.296Z,38.40
2022-11-24T13:03:29.348Z,88.50
2022-11-24T13:06:06.207Z,56.90
2022-11-24T13:08:34.875Z,59.30
2022-11-24T13:11:21.181Z,38.00
2022-11-24T13:14:15.149Z,22.10
2022-11-24T13:17:29.542Z,31.60
2022-11-24T13:19:46.215Z,29.30
2022-11-24T13:22:16.229Z,26.50
2022-11-24T13:24:44.918Z,25.60
2022-11-24T13:27:15.883Z,35.20
2022-11-24T13:29:44.696Z,54.50
2022-11-24T13:32:13.127Z,22.70
2022-11-24T13:34:45.550Z,55.60
2022-11-24T13:37:31.458Z,37.70
2022-11-24T13:40:17.492Z,44.00
2022-11-24T13:43:07.461Z,43.80
2022-11-24T13:45:41.433Z,34.90
2022-11-24T13:48:21.974Z,25.30
2022-11-24T13:50:50.536Z,28.40
2022-11-24T13:53:18.288Z,64.00
2022-11-24T13:55:59.367Z,34.30
2022-11-24T13:58:32.276Z,44.20
2022-11-24T14:01:02.875Z,29.70
2022-11-24T14:03:34.729Z,74.20
2022-11-24T14:06:02.629Z,11.50
2022-11-24T14:08:32.716Z,13.90
2022-11-24T14:11:01.093Z,23.90
2022-11-24T14:13:30.905Z,20.50
2022-11-24T14:16:04.972Z,15.00
2022-11-24T14:18:33.807Z,20.20
2022-11-24T14:21:16.013Z,23.60
2022-11-24T14:23:44.592Z,10.00
2022-11-24T14:26:21.735Z,16.30
2022-11-24T14:28:49.906Z,18.00
2022-11-24T14:31:25.130Z,17.80
2022-11-24T14:34:12.722Z,14.80
2022-11-24T14:36:40.803Z,11.50
2022-11-24T14:39:17.154Z,11.70
2022-11-24T14:42:04.577Z,8.50
2022-11-24T14:44:43.814Z,13.00
2022-11-24T14:47:32.870Z,14.20
2022-11-24T14:50:27.440Z,16.00
2022-11-24T14:52:56.579Z,14.70
2022-11-24T14:55:24.330Z,15.30
2022-11-24T14:57:52.230Z,14.40
2022-11-24T15:00:25.282Z,8.80
2022-11-24T15:02:55.010Z,15.20
2022-11-24T15:05:24.569Z,18.20
2022-11-24T15:08:00.894Z,22.40
2022-11-24T15:10:34.973Z,19.00
2022-11-24T15:13:04.915Z,19.80
2022-11-24T15:15:37.054Z,19.20
2022-11-24T15:18:06.076Z,10.80
2022-11-24T15:20:41.926Z,16.20
2022-11-24T15:23:25.158Z,18.80
2022-11-24T15:26:13.476Z,16.70
2022-11-24T15:28:41.336Z,17.60
2022-11-24T15:31:10.173Z,14.10
2022-11-24T15:33:37.889Z,17.50
2022-11-24T15:36:06.477Z,13.80
2022-11-24T15:38:34.235Z,17.30
2022-11-24T15:41:02.221Z,18.20
2022-11-24T15:43:36.855Z,17.80
2022-11-24T15:46:04.808Z,17.30
2022-11-24T15:48:32.769Z,22.90
2022-11-24T15:51:02.653Z,22.00
2022-11-24T15:53:34.870Z,9.80
2022-11-24T15:56:03.683Z,24.90
2022-11-24T15:58:31.606Z,24.50
2022-11-24T16:00:59.436Z,25.80
2022-11-24T16:06:24.787Z,35.80
2022-11-24T16:08:54.356Z,42.10
2022-11-24T16:11:22.492Z,17.90
2022-11-24T16:13:53.748Z,22.90
2022-11-24T16:16:22.958Z,28.50
2022-11-24T16:18:50.707Z,44.30
2022-11-24T16:21:18.547Z,32.20
2022-11-24T16:23:47.549Z,24.90
2022-11-24T16:26:16.123Z,19.50
2022-11-24T16:28:45.530Z,17.40
2022-11-24T16:31:15.312Z,31.80
2022-11-24T16:33:47.000Z,26.30
2022-11-24T16:36:14.969Z,42.90
2022-11-24T16:38:43.037Z,31.10
2022-11-24T16:41:14.071Z,23.80
2022-11-24T16:43:42.154Z,26.10
2022-11-24T16:46:21.394Z,10.70
2022-11-24T16:48:53.570Z,18.00
2022-11-24T16:51:22.445Z,16.20
2022-11-24T16:53:57.194Z,26.30
2022-11-24T16:56:25.850Z,20.30
2022-11-24T16:58:53.760Z,23.00
2022-11-24T17:01:21.863Z,24.50
2022-11-24T17:03:50.065Z,11.70
2022-11-24T17:06:17.837Z,15.40
2022-11-24T17:08:48.073Z,16.00
2022-11-24T17:11:20.782Z,13.20
2022-11-24T17:13:50.743Z,12.40
2022-11-24T17:16:20.594Z,11.30
2022-11-24T17:18:49.150Z,10.80
2022-11-24T17:21:21.722Z,9.00
2022-11-24T17:23:55.216Z,8.00
2022-11-24T17:26:23.515Z,12.30
2022-11-24T17:28:51.260Z,12.50
2022-11-24T17:31:24.896Z,9.20
2022-11-24T17:33:54.252Z,11.90
2022-11-24T17:36:22.330Z,12.10
2022-11-24T17:38:50.806Z,8.50
2022-11-24T17:41:19.387Z,15.10
2022-11-24T17:43:51.763Z,12.10
2022-11-24T17:46:25.203Z,12.10
2022-11-24T17:48:53.338Z,12.10
2022-11-24T17:51:23.032Z,11.70
2022-11-24T17:53:52.033Z,12.50
2022-11-24T17:56:24.802Z,7.10
2022-11-24T17:58:54.032Z,10.20
2022-11-24T18:01:25.757Z,12.10
2022-11-24T18:03:55.930Z,9.60
2022-11-24T18:06:28.364Z,10.60
2022-11-24T18:08:56.844Z,9.90
2022-11-24T18:11:31.326Z,9.90
2022-11-24T18:14:02.389Z,3.90
2022-11-24T18:16:31.901Z,9.30
2022-11-24T18:19:08.265Z,7.40
2022-11-24T18:21:38.711Z,7.50
2022-11-24T18:24:07.671Z,9.80
2022-11-24T18:26:35.252Z,8.90
2022-11-24T18:29:03.428Z,9.20
2022-11-24T18:31:32.171Z,8.90
2022-11-24T18:33:59.980Z,8.30
2022-11-24T18:36:30.633Z,9.50
2022-11-24T18:39:06.295Z,9.00
2022-11-24T18:41:34.023Z,7.20
2022-11-24T18:44:02.816Z,8.10
2022-11-24T18:46:30.605Z,5.80
2022-11-24T18:48:59.053Z,5.90
2022-11-24T18:51:26.929Z,10.20
2022-11-24T18:53:55.099Z,12.30
2022-11-24T18:56:22.652Z,8.50
2022-11-24T18:58:53.982Z,10.10
2022-11-24T19:01:24.307Z,9.60
2022-11-24T19:03:53.523Z,8.40
2022-11-24T19:06:31.736Z,6.40
2022-11-24T19:09:01.058Z,8.90
2022-11-24T19:11:33.927Z,6.00
2022-11-24T19:14:02.396Z,7.90
2022-11-24T19:16:31.987Z,10.40
2022-11-24T19:19:01.514Z,7.90
2022-11-24T19:21:36.836Z,8.50
2022-11-24T19:24:05.957Z,3.10
2022-11-24T19:26:37.201Z,9.20
2022-11-24T19:29:05.471Z,8.80
2022-11-24T19:31:33.699Z,6.50
2022-11-24T19:34:02.760Z,5.80
2022-11-24T19:36:31.625Z,5.90
2022-11-24T19:38:59.388Z,4.60
2022-11-24T19:41:30.024Z,4.60
2022-11-24T19:43:58.524Z,3.10
2022-11-24T19:46:27.223Z,3.70
2022-11-24T19:48:56.575Z,3.90
2022-11-24T19:51:34.804Z,4.90
2022-11-24T19:54:02.971Z,5.10
2022-11-24T19:56:34.549Z,4.60
2022-11-24T19:59:03.887Z,3.90
2022-11-24T20:01:33.231Z,4.30
2022-11-24T20:04:07.540Z,3.50
2022-11-24T20:06:37.049Z,4.70
2022-11-24T20:09:07.732Z,3.40
2022-11-24T20:11:35.341Z,5.00
2022-11-24T20:14:03.413Z,4.20
2022-11-24T20:16:33.291Z,4.40
2022-11-24T20:19:05.398Z,5.10
2022-11-24T20:21:34.281Z,3.90
2022-11-24T20:24:09.158Z,5.90
2022-11-24T20:26:38.612Z,4.70
2022-11-24T20:29:06.377Z,5.80
2022-11-24T20:31:38.067Z,4.90
2022-11-24T20:34:06.048Z,4.70
2022-11-24T20:36:34.385Z,5.40
2022-11-24T20:39:07.162Z,5.30
2022-11-24T20:41:37.279Z,3.60
2022-11-24T20:44:10.153Z,6.00
2022-11-24T20:46:38.341Z,4.70
2022-11-24T20:49:08.685Z,6.20
2022-11-24T20:51:37.348Z,5.90
2022-11-24T20:54:10.399Z,8.80
2022-11-24T20:56:42.703Z,8.50
2022-11-24T20:59:19.173Z,5.20
2022-11-24T21:01:46.738Z,7.80
2022-11-24T21:04:16.748Z,6.50
2022-11-24T21:06:44.206Z,6.50
2022-11-24T21:09:11.974Z,5.50
2022-11-24T21:11:39.731Z,5.20
2022-11-24T21:14:07.606Z,5.30
2022-11-24T21:16:36.713Z,4.20
2022-11-24T21:19:06.504Z,5.60
2022-11-24T21:21:35.500Z,5.60
2022-11-24T21:24:13.546Z,5.10
2022-11-24T21:26:41.578Z,4.90
2022-11-24T21:29:13.786Z,6.70
2022-11-24T21:31:41.408Z,6.20
2022-11-24T21:34:09.474Z,8.00
2022-11-24T21:36:41.684Z,8.00
2022-11-24T21:39:10.064Z,7.50
2022-11-24T21:41:39.934Z,7.50
2022-11-24T21:44:07.494Z,8.10
2022-11-24T21:46:43.604Z,9.20
2022-11-24T21:49:13.776Z,7.90
2022-11-24T21:51:41.332Z,9.10
2022-11-24T21:54:09.014Z,8.70
2022-11-24T21:56:37.582Z,10.40
2022-11-24T21:59:05.446Z,10.50
2022-11-24T22:01:33.042Z,7.50
2022-11-24T22:04:01.078Z,7.70
2022-11-24T22:06:28.631Z,9.10
2022-11-24T22:08:56.395Z,8.00
2022-11-24T22:11:24.671Z,8.40
2022-11-24T22:13:53.578Z,7.50
2022-11-24T22:16:23.460Z,6.30
2022-11-24T22:18:51.649Z,7.60
2022-11-24T22:21:23.845Z,7.00
2022-11-24T22:23:54.552Z,5.70
2022-11-24T22:26:23.956Z,7.60
2022-11-24T22:28:52.021Z,7.50
2022-11-24T22:31:22.076Z,6.30
2022-11-24T22:33:50.213Z,6.70
2022-11-24T22:36:20.487Z,7.00
2022-11-24T22:38:48.302Z,6.70
2022-11-24T22:41:17.339Z,3.20
2022-11-24T22:43:45.573Z,5.10
2022-11-24T22:46:15.119Z,6.20
2022-11-24T22:48:43.247Z,5.80
2022-11-24T22:51:12.650Z,7.10
2022-11-24T22:53:40.314Z,5.40
2022-11-24T22:56:09.618Z,5.60
2022-11-24T22:58:37.651Z,3.10
2022-11-24T23:01:09.045Z,3.90
2022-11-24T23:03:37.164Z,4.20
2022-11-24T23:06:10.356Z,4.60
2022-11-24T23:08:39.182Z,4.40
2022-11-24T23:11:20.771Z,3.80
2022-11-24T23:13:52.901Z,3.30
2022-11-24T23:16:20.370Z,2.60
2022-11-24T23:18:53.578Z,3.70
2022-11-24T23:21:23.957Z,2.70
2022-11-24T23:23:51.876Z,2.70
2022-11-24T23:26:24.458Z,4.20
2022-11-24T23:28:52.265Z,4.00
2022-11-24T23:31:23.852Z,3.40
2022-11-24T23:33:52.352Z,3.20
2022-11-24T23:36:20.526Z,4.10
2022-11-24T23:38:51.569Z,3.90
2022-11-24T23:41:21.079Z,4.20
2022-11-24T23:43:50.067Z,5.40
2022-11-24T23:46:21.337Z,3.40
2022-11-24T23:48:49.893Z,3.30
2022-11-24T23:51:27.696Z,4.10
2022-11-24T23:53:55.386Z,3.80
2022-11-24T23:56:27.938Z,3.40
2022-11-24T23:58:55.387Z,3.80
